Aérodrome :
LOGIN :

S'inscrire | Disclaimer

   EN    FR    IT 

 










Légende :    VFR   VFR Marginal   IFR   IFR Intensif   IFR Très Intensif
Visi : 
Plafond : 
>= 8 km
>= 3000ft
5 à 8 km
1000 à 3000 ft
1500m à 5 km
500 à 1000 ft
800 à 1500m
200 à 500 ft
< 800m
< 200 ft
Symboles :   Orages  Brouillard  Fortes neiges  Fortes précipitations  Vent > 20 kt
SIGMETs :   Divers  Orages  Givrage  Turbulence  Onde Orograph.  Cendres Volcan.






- Altitude de l'aérodrome : 182 ft
- Code IATA : KCO


LTBQ - Cengiz Topel

DERNIER METAR :
  • 190250Z 00000KT 1400 R27/P1500N R09/1200D BCFG NSC M02/M02 Q1020 TEMPO 0300 FG VV002

METARs EXPIRÉS :
  • 190150Z 00000KT 2500 BR NSC M02/M02 Q1020 BECMG TL0300 1200 BCFG
  • 190106Z 00000KT 4000 BR NSC M02/M02 Q1020 BECMG 1200 BCFG RMK RWY09 /////KT
  • 190050Z 00000KT 5000 BR NSC M02/M02 Q1020 BECMG 1200 BCFG

TAF TAF LTBQ
Valide du 19 à 03h jusqu'au 19 à 12h UTC


190140Z 1903/1912 VRB02KT 1200 BCFG NSC
TEMPO 1903/1907 0300 FG VV002
BECMG 1907/1909 8000
BECMG 1909/1911 27012KT SCT035 BKN100



MET'MAP, la Météo Aéronautique d'un coup d'oeil ! - Copyright ORBIFLY Décembre 2007 - Disclaimer

ORBIFLY MET'MAP TEAM :

Programmation & Développement : Alexandra Zaïnal
Sur une idée originale de : Baudouin d'Aumeries
Assistance à la programmation : Marc-Olivier Méhu
Soutien technique & logistique : Manuel Goepfert

Contact : metmap@orbifly.com




SOURCES & CREDITS :

   NOAA